Terminal Aerodrome Forecast
Issued by NWS

Home | Current Version | Previous Version | Graphics & Text | Print | Product List | Glossary On
Versions: 1 2 3 4 5 6 7 8 9 10 11 12 13 14 15
000
FTUS43 KABR 230301 AAA
TAFPIR
TAF AMD
KPIR 230301Z 2303/2324 08010KT P6SM BKN250
     FM230500 16010G18KT P6SM SKC WS020/19040KT
     FM231100 17011KT P6SM FEW250
     FM231400 23011KT P6SM FEW250
     FM231800 32013KT P6SM FEW250=

USA.gov is the U.S. government's official web portal to all federal, state and local government web resources and services.